sensor_id;sensor_type;location;lat;lon;timestamp;pressure;altitude;pressure_sealevel;temperature;humidity
25084;BME280;13075;55.682;37.564;2023-04-10T00:00:02;100422.75;;;14.72;42.41
25084;BME280;13075;55.682;37.564;2023-04-10T00:02:30;100435.13;;;14.47;43.27
25084;BME280;13075;55.682;37.564;2023-04-10T00:04:55;100421.94;;;14.78;42.28
25084;BME280;13075;55.682;37.564;2023-04-10T00:07:21;100423.38;;;14.87;42.03
25084;BME280;13075;55.682;37.564;2023-04-10T00:09:47;100424.84;;;14.83;42.53
25084;BME280;13075;55.682;37.564;2023-04-10T00:12:12;100420.09;;;14.98;42.90
25084;BME280;13075;55.682;37.564;2023-04-10T00:14:38;100419.03;;;14.80;42.62
25084;BME280;13075;55.682;37.564;2023-04-10T00:17:04;100415.91;;;14.76;42.38
25084;BME280;13075;55.682;37.564;2023-04-10T00:19:30;100418.19;;;14.60;42.78
25084;BME280;13075;55.682;37.564;2023-04-10T00:21:55;100422.50;;;14.48;42.43
25084;BME280;13075;55.682;37.564;2023-04-10T00:24:21;100414.88;;;14.77;41.80
25084;BME280;13075;55.682;37.564;2023-04-10T00:26:46;100418.81;;;14.68;41.83
25084;BME280;13075;55.682;37.564;2023-04-10T00:29:11;100423.56;;;14.79;42.21
25084;BME280;13075;55.682;37.564;2023-04-10T00:31:37;100418.81;;;14.81;42.26
25084;BME280;13075;55.682;37.564;2023-04-10T00:34:02;100423.38;;;14.81;41.78
25084;BME280;13075;55.682;37.564;2023-04-10T00:36:28;100425.66;;;14.71;42.58
25084;BME280;13075;55.682;37.564;2023-04-10T00:38:53;100448.81;;;14.59;42.50
25084;BME280;13075;55.682;37.564;2023-04-10T00:41:19;100436.81;;;14.55;42.82
25084;BME280;13075;55.682;37.564;2023-04-10T00:43:44;100436.47;;;14.84;42.68
25084;BME280;13075;55.682;37.564;2023-04-10T00:46:10;100434.78;;;14.96;42.58
25084;BME280;13075;55.682;37.564;2023-04-10T00:48:36;100441.81;;;14.71;43.28
25084;BME280;13075;55.682;37.564;2023-04-10T00:51:02;100431.25;;;15.02;43.62
25084;BME280;13075;55.682;37.564;2023-04-10T00:53:28;100435.19;;;14.99;43.21
25084;BME280;13075;55.682;37.564;2023-04-10T00:55:53;100429.63;;;15.01;43.96
25084;BME280;13075;55.682;37.564;2023-04-10T00:58:19;100430.41;;;14.82;44.15
25084;BME280;13075;55.682;37.564;2023-04-10T01:03:21;100426.91;;;15.08;43.24
25084;BME280;13075;55.682;37.564;2023-04-10T01:05:52;100430.44;;;15.02;44.36
25084;BME280;13075;55.682;37.564;2023-04-10T01:13:52;100422.13;;;14.70;44.15
25084;BME280;13075;55.682;37.564;2023-04-10T01:16:21;100417.56;;;14.77;44.50
25084;BME280;13075;55.682;37.564;2023-04-10T01:21:17;100416.31;;;14.99;43.65
25084;BME280;13075;55.682;37.564;2023-04-10T01:26:12;100418.22;;;14.99;44.48
25084;BME280;13075;55.682;37.564;2023-04-10T01:28:56;100428.38;;;14.90;45.31
25084;BME280;13075;55.682;37.564;2023-04-10T01:34:09;100423.78;;;14.84;44.48
25084;BME280;13075;55.682;37.564;2023-04-10T01:36:39;100416.94;;;14.62;44.84
25084;BME280;13075;55.682;37.564;2023-04-10T01:39:07;100422.06;;;14.44;45.24
25084;BME280;13075;55.682;37.564;2023-04-10T01:41:33;100422.13;;;14.77;44.56
25084;BME280;13075;55.682;37.564;2023-04-10T01:44:00;100425.25;;;14.80;44.31
25084;BME280;13075;55.682;37.564;2023-04-10T01:46:28;100427.34;;;14.91;44.43
25084;BME280;13075;55.682;37.564;2023-04-10T01:48:54;100429.97;;;14.59;44.64
25084;BME280;13075;55.682;37.564;2023-04-10T01:51:20;100439.09;;;14.58;44.87
25084;BME280;13075;55.682;37.564;2023-04-10T01:53:47;100432.69;;;14.72;44.84
25084;BME280;13075;55.682;37.564;2023-04-10T01:56:20;100433.72;;;14.64;45.70
25084;BME280;13075;55.682;37.564;2023-04-10T01:58:46;100426.03;;;14.55;45.11
25084;BME280;13075;55.682;37.564;2023-04-10T02:01:19;100422.66;;;14.33;46.40
25084;BME280;13075;55.682;37.564;2023-04-10T02:03:45;100428.63;;;14.28;48.04
25084;BME280;13075;55.682;37.564;2023-04-10T02:06:17;100427.06;;;14.47;47.67
25084;BME280;13075;55.682;37.564;2023-04-10T02:09:09;100421.06;;;14.52;48.33
25084;BME280;13075;55.682;37.564;2023-04-10T02:11:47;100427.50;;;14.57;48.08
25084;BME280;13075;55.682;37.564;2023-04-10T02:14:15;100433.28;;;14.54;47.61
25084;BME280;13075;55.682;37.564;2023-04-10T02:16:41;100435.16;;;14.67;47.39
25084;BME280;13075;55.682;37.564;2023-04-10T02:19:07;100439.59;;;14.27;48.30
25084;BME280;13075;55.682;37.564;2023-04-10T02:21:34;100444.31;;;14.18;49.18
25084;BME280;13075;55.682;37.564;2023-04-10T02:23:59;100441.41;;;14.20;48.31
25084;BME280;13075;55.682;37.564;2023-04-10T02:26:25;100435.72;;;14.36;48.15
25084;BME280;13075;55.682;37.564;2023-04-10T02:28:50;100437.78;;;14.34;47.92
25084;BME280;13075;55.682;37.564;2023-04-10T02:31:16;100442.72;;;14.30;48.23
25084;BME280;13075;55.682;37.564;2023-04-10T02:33:41;100442.78;;;14.37;47.37
25084;BME280;13075;55.682;37.564;2023-04-10T02:36:07;100440.63;;;14.26;48.11
25084;BME280;13075;55.682;37.564;2023-04-10T02:38:33;100432.41;;;14.41;47.65
25084;BME280;13075;55.682;37.564;2023-04-10T02:40:59;100428.34;;;14.58;48.11
25084;BME280;13075;55.682;37.564;2023-04-10T02:43:24;100433.28;;;14.61;47.51
25084;BME280;13075;55.682;37.564;2023-04-10T02:45:51;100437.84;;;14.54;47.53
25084;BME280;13075;55.682;37.564;2023-04-10T02:48:24;100437.00;;;14.47;48.11
25084;BME280;13075;55.682;37.564;2023-04-10T02:50:55;100435.75;;;14.56;48.28
25084;BME280;13075;55.682;37.564;2023-04-10T02:53:21;100428.50;;;14.50;48.82
25084;BME280;13075;55.682;37.564;2023-04-10T02:55:51;100438.06;;;14.52;48.90
25084;BME280;13075;55.682;37.564;2023-04-10T02:58:16;100435.75;;;14.49;49.18
25084;BME280;13075;55.682;37.564;2023-04-10T03:00:46;100428.28;;;14.51;49.64
25084;BME280;13075;55.682;37.564;2023-04-10T03:03:21;100427.91;;;14.61;49.80
25084;BME280;13075;55.682;37.564;2023-04-10T03:05:52;100435.56;;;14.64;49.97
25084;BME280;13075;55.682;37.564;2023-04-10T03:08:23;100435.72;;;14.36;50.43
25084;BME280;13075;55.682;37.564;2023-04-10T03:10:49;100430.84;;;14.72;50.56
25084;BME280;13075;55.682;37.564;2023-04-10T03:13:14;100444.06;;;14.61;50.92
25084;BME280;13075;55.682;37.564;2023-04-10T03:15:40;100428.75;;;14.68;51.17
25084;BME280;13075;55.682;37.564;2023-04-10T03:18:06;100437.88;;;14.80;51.42
25084;BME280;13075;55.682;37.564;2023-04-10T03:20:36;100439.72;;;14.60;52.94
25084;BME280;13075;55.682;37.564;2023-04-10T03:23:04;100431.03;;;14.64;54.81
25084;BME280;13075;55.682;37.564;2023-04-10T03:25:30;100432.47;;;14.60;53.66
25084;BME280;13075;55.682;37.564;2023-04-10T03:27:56;100434.16;;;14.87;54.25
25084;BME280;13075;55.682;37.564;2023-04-10T03:30:22;100437.47;;;14.89;54.24
25084;BME280;13075;55.682;37.564;2023-04-10T03:32:48;100444.94;;;14.81;54.92
25084;BME280;13075;55.682;37.564;2023-04-10T03:35:13;100448.28;;;14.96;54.63
25084;BME280;13075;55.682;37.564;2023-04-10T03:37:38;100443.69;;;14.70;54.70
25084;BME280;13075;55.682;37.564;2023-04-10T03:40:06;100442.84;;;14.89;54.16
25084;BME280;13075;55.682;37.564;2023-04-10T03:42:32;100440.38;;;14.88;56.91
25084;BME280;13075;55.682;37.564;2023-04-10T03:44:58;100434.19;;;14.94;55.01
25084;BME280;13075;55.682;37.564;2023-04-10T03:47:25;100433.56;;;15.12;55.35
25084;BME280;13075;55.682;37.564;2023-04-10T03:49:51;100428.75;;;15.20;56.23
25084;BME280;13075;55.682;37.564;2023-04-10T03:52:17;100436.03;;;15.00;57.66
25084;BME280;13075;55.682;37.564;2023-04-10T03:54:43;100435.41;;;14.98;57.63
25084;BME280;13075;55.682;37.564;2023-04-10T03:57:21;100421.13;;;15.30;57.41
25084;BME280;13075;55.682;37.564;2023-04-10T03:59:47;100414.88;;;15.49;55.90
25084;BME280;13075;55.682;37.564;2023-04-10T04:02:13;100419.03;;;15.45;56.25
25084;BME280;13075;55.682;37.564;2023-04-10T04:04:40;100426.72;;;15.09;55.47
25084;BME280;13075;55.682;37.564;2023-04-10T04:07:24;100425.25;;;15.20;56.90
25084;BME280;13075;55.682;37.564;2023-04-10T04:10:09;100421.28;;;15.42;56.55
25084;BME280;13075;55.682;37.564;2023-04-10T04:12:45;100416.81;;;15.93;57.44
25084;BME280;13075;55.682;37.564;2023-04-10T04:15:24;100419.38;;;15.75;56.94
25084;BME280;13075;55.682;37.564;2023-04-10T04:17:55;100422.94;;;15.63;57.92
25084;BME280;13075;55.682;37.564;2023-04-10T04:20:39;100417.78;;;15.35;59.24
25084;BME280;13075;55.682;37.564;2023-04-10T04:23:23;100412.03;;;16.40;55.50
25084;BME280;13075;55.682;37.564;2023-04-10T04:26:01;100412.50;;;16.68;54.10
25084;BME280;13075;55.682;37.564;2023-04-10T04:28:45;100419.47;;;16.44;53.70
25084;BME280;13075;55.682;37.564;2023-04-10T04:31:14;100410.53;;;16.50;56.07
25084;BME280;13075;55.682;37.564;2023-04-10T04:34:06;100410.81;;;15.85;57.89
25084;BME280;13075;55.682;37.564;2023-04-10T04:36:50;100415.63;;;16.27;56.02
25084;BME280;13075;55.682;37.564;2023-04-10T04:39:16;100417.94;;;16.23;54.71
25084;BME280;13075;55.682;37.564;2023-04-10T04:41:51;100406.50;;;16.28;53.32
25084;BME280;13075;55.682;37.564;2023-04-10T04:44:30;100412.44;;;16.43;52.64
25084;BME280;13075;55.682;37.564;2023-04-10T04:47:20;100404.03;;;16.64;50.50
25084;BME280;13075;55.682;37.564;2023-04-10T04:49:54;100406.16;;;16.87;51.47
25084;BME280;13075;55.682;37.564;2023-04-10T04:52:42;100403.09;;;17.02;52.35
25084;BME280;13075;55.682;37.564;2023-04-10T04:55:28;100404.09;;;17.07;48.79
25084;BME280;13075;55.682;37.564;2023-04-10T04:58:12;100407.00;;;17.30;49.09
25084;BME280;13075;55.682;37.564;2023-04-10T05:00:51;100407.69;;;17.26;47.52
25084;BME280;13075;55.682;37.564;2023-04-10T05:03:25;100412.06;;;17.70;48.54
25084;BME280;13075;55.682;37.564;2023-04-10T05:06:30;100412.41;;;17.73;46.72
25084;BME280;13075;55.682;37.564;2023-04-10T05:09:13;100414.50;;;17.53;44.42
25084;BME280;13075;55.682;37.564;2023-04-10T05:11:56;100420.69;;;17.60;43.97
25084;BME280;13075;55.682;37.564;2023-04-10T05:14:55;100420.31;;;18.11;44.36
25084;BME280;13075;55.682;37.564;2023-04-10T05:17:49;100423.03;;;18.41;43.61
25084;BME280;13075;55.682;37.564;2023-04-10T05:20:36;100414.47;;;17.96;43.61
25084;BME280;13075;55.682;37.564;2023-04-10T05:23:09;100421.66;;;18.80;42.10
25084;BME280;13075;55.682;37.564;2023-04-10T05:25:44;100423.84;;;19.12;41.69
25084;BME280;13075;55.682;37.564;2023-04-10T05:28:19;100426.34;;;19.14;41.39
25084;BME280;13075;55.682;37.564;2023-04-10T05:31:05;100424.50;;;18.85;42.08
25084;BME280;13075;55.682;37.564;2023-04-10T05:33:36;100417.28;;;19.55;42.34
25084;BME280;13075;55.682;37.564;2023-04-10T05:36:22;100409.78;;;19.97;40.96
25084;BME280;13075;55.682;37.564;2023-04-10T05:39:04;100429.47;;;20.15;41.76
25084;BME280;13075;55.682;37.564;2023-04-10T05:41:44;100423.75;;;20.40;40.67
25084;BME280;13075;55.682;37.564;2023-04-10T05:44:18;100421.09;;;20.57;40.03
25084;BME280;13075;55.682;37.564;2023-04-10T05:46:59;100427.03;;;20.42;40.24
25084;BME280;13075;55.682;37.564;2023-04-10T05:49:36;100422.72;;;21.19;38.66
25084;BME280;13075;55.682;37.564;2023-04-10T05:52:20;100435.38;;;20.52;39.02
25084;BME280;13075;55.682;37.564;2023-04-10T05:54:46;100428.06;;;20.52;39.22
25084;BME280;13075;55.682;37.564;2023-04-10T05:57:26;100431.22;;;20.61;39.48
25084;BME280;13075;55.682;37.564;2023-04-10T06:00:20;100435.00;;;20.60;39.12
25084;BME280;13075;55.682;37.564;2023-04-10T06:03:05;100432.38;;;21.10;39.27
25084;BME280;13075;55.682;37.564;2023-04-10T06:05:32;100432.81;;;21.73;38.54
25084;BME280;13075;55.682;37.564;2023-04-10T06:08:02;100422.69;;;21.86;37.69
25084;BME280;13075;55.682;37.564;2023-04-10T06:10:30;100432.00;;;23.45;35.50
25084;BME280;13075;55.682;37.564;2023-04-10T06:12:56;100431.97;;;24.44;33.47
25084;BME280;13075;55.682;37.564;2023-04-10T06:15:22;100424.84;;;24.48;34.10
25084;BME280;13075;55.682;37.564;2023-04-10T06:17:48;100426.50;;;23.87;34.27
25084;BME280;13075;55.682;37.564;2023-04-10T06:20:13;100427.59;;;23.07;35.43
25084;BME280;13075;55.682;37.564;2023-04-10T06:22:39;100437.75;;;22.37;37.59
25084;BME280;13075;55.682;37.564;2023-04-10T06:25:05;100435.31;;;21.75;37.99
25084;BME280;13075;55.682;37.564;2023-04-10T06:27:32;100431.59;;;21.64;36.99
25084;BME280;13075;55.682;37.564;2023-04-10T06:29:58;100441.22;;;20.72;38.27
25084;BME280;13075;55.682;37.564;2023-04-10T06:32:24;100436.34;;;20.74;38.29
25084;BME280;13075;55.682;37.564;2023-04-10T06:34:50;100441.31;;;20.77;38.32
25084;BME280;13075;55.682;37.564;2023-04-10T06:37:15;100434.50;;;20.63;39.30
25084;BME280;13075;55.682;37.564;2023-04-10T06:39:41;100448.38;;;20.33;39.89
25084;BME280;13075;55.682;37.564;2023-04-10T06:42:07;100444.53;;;19.95;40.01
25084;BME280;13075;55.682;37.564;2023-04-10T06:44:42;100450.28;;;19.98;39.94
25084;BME280;13075;55.682;37.564;2023-04-10T06:47:07;100454.47;;;19.54;40.58
25084;BME280;13075;55.682;37.564;2023-04-10T06:49:33;100451.63;;;19.49;40.75
25084;BME280;13075;55.682;37.564;2023-04-10T06:51:58;100456.59;;;19.87;40.14
25084;BME280;13075;55.682;37.564;2023-04-10T06:54:24;100455.84;;;19.22;40.56
25084;BME280;13075;55.682;37.564;2023-04-10T06:56:49;100460.72;;;19.89;40.68
25084;BME280;13075;55.682;37.564;2023-04-10T06:59:15;100451.75;;;19.89;40.61
25084;BME280;13075;55.682;37.564;2023-04-10T07:01:40;100452.19;;;19.16;41.58
25084;BME280;13075;55.682;37.564;2023-04-10T07:04:06;100452.72;;;19.48;40.58
25084;BME280;13075;55.682;37.564;2023-04-10T07:06:31;100455.03;;;19.91;40.60
25084;BME280;13075;55.682;37.564;2023-04-10T07:08:57;100453.56;;;20.12;40.55
25084;BME280;13075;55.682;37.564;2023-04-10T07:11:22;100460.19;;;20.27;39.26
25084;BME280;13075;55.682;37.564;2023-04-10T07:13:47;100457.56;;;20.32;39.38
25084;BME280;13075;55.682;37.564;2023-04-10T07:16:17;100454.31;;;20.07;39.35
25084;BME280;13075;55.682;37.564;2023-04-10T07:18:43;100452.97;;;20.33;38.13
25084;BME280;13075;55.682;37.564;2023-04-10T07:21:09;100456.16;;;20.18;38.05
25084;BME280;13075;55.682;37.564;2023-04-10T07:23:34;100450.72;;;20.30;37.95
25084;BME280;13075;55.682;37.564;2023-04-10T07:26:00;100457.72;;;20.82;38.05
25084;BME280;13075;55.682;37.564;2023-04-10T07:28:26;100453.34;;;20.81;37.87
25084;BME280;13075;55.682;37.564;2023-04-10T07:30:51;100455.94;;;20.08;38.25
25084;BME280;13075;55.682;37.564;2023-04-10T07:33:16;100456.00;;;19.39;38.72
25084;BME280;13075;55.682;37.564;2023-04-10T07:35:42;100451.13;;;19.99;38.28
25084;BME280;13075;55.682;37.564;2023-04-10T07:38:07;100456.97;;;20.19;37.71
25084;BME280;13075;55.682;37.564;2023-04-10T07:40:33;100459.47;;;20.32;38.34
25084;BME280;13075;55.682;37.564;2023-04-10T07:42:58;100458.25;;;20.39;38.84
25084;BME280;13075;55.682;37.564;2023-04-10T07:45:23;100444.19;;;20.42;38.08
25084;BME280;13075;55.682;37.564;2023-04-10T07:47:49;100458.69;;;19.97;38.26
25084;BME280;13075;55.682;37.564;2023-04-10T07:50:14;100451.31;;;21.05;37.22
25084;BME280;13075;55.682;37.564;2023-04-10T07:52:40;100457.78;;;21.16;37.73
25084;BME280;13075;55.682;37.564;2023-04-10T07:55:05;100448.50;;;21.00;37.92
25084;BME280;13075;55.682;37.564;2023-04-10T07:57:31;100448.56;;;20.88;37.91
25084;BME280;13075;55.682;37.564;2023-04-10T07:59:56;100447.75;;;21.71;37.54
25084;BME280;13075;55.682;37.564;2023-04-10T08:02:22;100448.34;;;22.11;36.71
25084;BME280;13075;55.682;37.564;2023-04-10T08:04:47;100442.78;;;25.11;33.47
25084;BME280;13075;55.682;37.564;2023-04-10T08:07:12;100436.47;;;28.75;28.82
25084;BME280;13075;55.682;37.564;2023-04-10T08:09:38;100443.47;;;31.22;25.21
25084;BME280;13075;55.682;37.564;2023-04-10T08:12:03;100426.13;;;28.43;26.95
25084;BME280;13075;55.682;37.564;2023-04-10T08:14:29;100434.19;;;30.19;25.33
25084;BME280;13075;55.682;37.564;2023-04-10T08:16:54;100434.31;;;29.04;26.06
25084;BME280;13075;55.682;37.564;2023-04-10T08:19:20;100431.56;;;28.06;26.43
25084;BME280;13075;55.682;37.564;2023-04-10T08:21:45;100434.28;;;26.42;28.20
25084;BME280;13075;55.682;37.564;2023-04-10T08:24:11;100438.91;;;23.58;30.68
25084;BME280;13075;55.682;37.564;2023-04-10T08:26:36;100444.00;;;23.44;32.38
25084;BME280;13075;55.682;37.564;2023-04-10T08:29:02;100442.09;;;24.43;31.52
25084;BME280;13075;55.682;37.564;2023-04-10T08:31:27;100432.56;;;25.82;29.92
25084;BME280;13075;55.682;37.564;2023-04-10T08:33:53;100432.66;;;25.26;30.61
25084;BME280;13075;55.682;37.564;2023-04-10T08:36:19;100434.28;;;24.87;30.90
25084;BME280;13075;55.682;37.564;2023-04-10T08:38:44;100428.72;;;24.57;31.07
25084;BME280;13075;55.682;37.564;2023-04-10T08:41:10;100422.66;;;23.83;31.55
25084;BME280;13075;55.682;37.564;2023-04-10T08:43:36;100425.25;;;23.26;33.24
25084;BME280;13075;55.682;37.564;2023-04-10T08:46:02;100428.63;;;21.66;34.40
25084;BME280;13075;55.682;37.564;2023-04-10T08:48:37;100427.63;;;22.10;34.51
25084;BME280;13075;55.682;37.564;2023-04-10T08:51:03;100427.50;;;22.70;33.96
25084;BME280;13075;55.682;37.564;2023-04-10T08:53:30;100426.16;;;22.24;34.15
25084;BME280;13075;55.682;37.564;2023-04-10T08:55:56;100427.34;;;21.90;35.42
25084;BME280;13075;55.682;37.564;2023-04-10T08:58:22;100429.41;;;22.48;35.03
25084;BME280;13075;55.682;37.564;2023-04-10T09:00:48;100417.22;;;22.56;34.33
25084;BME280;13075;55.682;37.564;2023-04-10T09:03:15;100420.88;;;21.58;34.66
25084;BME280;13075;55.682;37.564;2023-04-10T09:05:41;100424.22;;;21.10;35.99
25084;BME280;13075;55.682;37.564;2023-04-10T09:08:07;100423.06;;;21.78;34.86
25084;BME280;13075;55.682;37.564;2023-04-10T09:10:33;100424.44;;;21.97;34.47
25084;BME280;13075;55.682;37.564;2023-04-10T09:12:58;100423.84;;;21.73;34.40
25084;BME280;13075;55.682;37.564;2023-04-10T09:15:24;100422.22;;;21.22;35.71
25084;BME280;13075;55.682;37.564;2023-04-10T09:17:53;100420.50;;;21.33;36.01
25084;BME280;13075;55.682;37.564;2023-04-10T09:20:19;100422.06;;;21.45;36.13
25084;BME280;13075;55.682;37.564;2023-04-10T09:22:45;100417.88;;;21.21;36.39
25084;BME280;13075;55.682;37.564;2023-04-10T09:25:27;100417.97;;;21.64;35.80
25084;BME280;13075;55.682;37.564;2023-04-10T09:27:58;100419.56;;;21.99;35.20
25084;BME280;13075;55.682;37.564;2023-04-10T09:30:31;100410.91;;;21.85;34.36
25084;BME280;13075;55.682;37.564;2023-04-10T09:32:57;100419.72;;;22.35;33.74
25084;BME280;13075;55.682;37.564;2023-04-10T09:35:22;100418.63;;;22.85;33.62
25084;BME280;13075;55.682;37.564;2023-04-10T09:37:48;100408.06;;;24.14;32.63
25084;BME280;13075;55.682;37.564;2023-04-10T09:40:20;100402.63;;;24.29;31.63
25084;BME280;13075;55.682;37.564;2023-04-10T09:42:47;100398.78;;;24.15;32.21
25084;BME280;13075;55.682;37.564;2023-04-10T09:45:12;100406.44;;;24.13;32.17
25084;BME280;13075;55.682;37.564;2023-04-10T09:47:37;100404.34;;;23.05;33.67
25084;BME280;13075;55.682;37.564;2023-04-10T09:50:03;100406.88;;;22.31;34.27
25084;BME280;13075;55.682;37.564;2023-04-10T09:52:34;100400.19;;;21.79;34.58
25084;BME280;13075;55.682;37.564;2023-04-10T09:55:03;100404.25;;;22.41;33.88
25084;BME280;13075;55.682;37.564;2023-04-10T09:57:29;100416.38;;;22.50;34.47
25084;BME280;13075;55.682;37.564;2023-04-10T09:59:55;100409.75;;;22.46;33.77
25084;BME280;13075;55.682;37.564;2023-04-10T10:02:22;100410.34;;;21.83;34.12
25084;BME280;13075;55.682;37.564;2023-04-10T10:04:47;100407.13;;;22.56;33.50
25084;BME280;13075;55.682;37.564;2023-04-10T10:07:17;100405.47;;;22.28;33.63
25084;BME280;13075;55.682;37.564;2023-04-10T10:09:43;100396.81;;;21.88;35.09
25084;BME280;13075;55.682;37.564;2023-04-10T10:12:10;100401.84;;;21.96;34.41
25084;BME280;13075;55.682;37.564;2023-04-10T10:17:21;100413.66;;;22.28;34.98
25084;BME280;13075;55.682;37.564;2023-04-10T10:20:09;100409.88;;;21.69;34.89
25084;BME280;13075;55.682;37.564;2023-04-10T10:22:34;100410.03;;;22.23;34.97
25084;BME280;13075;55.682;37.564;2023-04-10T10:24:59;100405.00;;;22.85;34.08
25084;BME280;13075;55.682;37.564;2023-04-10T10:27:26;100412.84;;;22.55;34.33
25084;BME280;13075;55.682;37.564;2023-04-10T10:29:53;100403.19;;;22.20;34.00
25084;BME280;13075;55.682;37.564;2023-04-10T10:32:19;100394.00;;;21.45;35.31
25084;BME280;13075;55.682;37.564;2023-04-10T10:34:45;100397.03;;;20.98;35.81
25084;BME280;13075;55.682;37.564;2023-04-10T10:37:11;100390.09;;;21.96;34.94
25084;BME280;13075;55.682;37.564;2023-04-10T10:44:46;100389.97;;;21.86;34.58
25084;BME280;13075;55.682;37.564;2023-04-10T10:47:14;100380.34;;;21.61;34.00
25084;BME280;13075;55.682;37.564;2023-04-10T10:49:53;100384.50;;;21.47;35.34
25084;BME280;13075;55.682;37.564;2023-04-10T10:52:52;100381.47;;;21.44;35.47
25084;BME280;13075;55.682;37.564;2023-04-10T10:57:56;100373.28;;;21.82;34.72
25084;BME280;13075;55.682;37.564;2023-04-10T11:00:22;100373.28;;;21.82;35.04
25084;BME280;13075;55.682;37.564;2023-04-10T11:11:00;100386.81;;;20.89;36.06
25084;BME280;13075;55.682;37.564;2023-04-10T11:13:32;100387.06;;;21.04;36.02
25084;BME280;13075;55.682;37.564;2023-04-10T11:15:58;100378.97;;;21.42;35.53
25084;BME280;13075;55.682;37.564;2023-04-10T11:21:08;100373.78;;;20.91;35.88
25084;BME280;13075;55.682;37.564;2023-04-10T11:23:34;100373.16;;;20.67;36.94
25084;BME280;13075;55.682;37.564;2023-04-10T11:26:00;100379.31;;;20.96;36.06
25084;BME280;13075;55.682;37.564;2023-04-10T11:28:33;100372.31;;;21.00;35.61
25084;BME280;13075;55.682;37.564;2023-04-10T11:33:40;100378.44;;;21.07;35.75
25084;BME280;13075;55.682;37.564;2023-04-10T11:36:05;100364.59;;;21.25;34.85
25084;BME280;13075;55.682;37.564;2023-04-10T11:38:31;100370.34;;;20.95;35.24
25084;BME280;13075;55.682;37.564;2023-04-10T11:40:58;100366.88;;;20.67;35.83
25084;BME280;13075;55.682;37.564;2023-04-10T11:43:24;100365.78;;;21.01;35.03
25084;BME280;13075;55.682;37.564;2023-04-10T11:45:49;100368.34;;;20.58;35.60
25084;BME280;13075;55.682;37.564;2023-04-10T11:48:15;100371.56;;;20.71;36.17
25084;BME280;13075;55.682;37.564;2023-04-10T11:50:41;100366.34;;;20.53;36.35
25084;BME280;13075;55.682;37.564;2023-04-10T11:53:17;100365.81;;;20.84;35.98
25084;BME280;13075;55.682;37.564;2023-04-10T11:55:42;100371.88;;;20.58;36.29
25084;BME280;13075;55.682;37.564;2023-04-10T11:58:26;100371.47;;;20.83;36.27
25084;BME280;13075;55.682;37.564;2023-04-10T12:00:59;100364.59;;;20.47;36.30
25084;BME280;13075;55.682;37.564;2023-04-10T12:03:36;100366.72;;;20.90;36.30
25084;BME280;13075;55.682;37.564;2023-04-10T12:06:02;100358.53;;;20.73;36.04
25084;BME280;13075;55.682;37.564;2023-04-10T12:08:35;100358.31;;;20.75;36.21
25084;BME280;13075;55.682;37.564;2023-04-10T12:11:00;100359.88;;;20.87;36.06
25084;BME280;13075;55.682;37.564;2023-04-10T12:13:26;100352.94;;;20.63;36.22
25084;BME280;13075;55.682;37.564;2023-04-10T12:15:53;100352.59;;;20.43;36.39
25084;BME280;13075;55.682;37.564;2023-04-10T12:18:21;100345.00;;;20.28;37.29
25084;BME280;13075;55.682;37.564;2023-04-10T12:20:47;100350.69;;;20.60;37.32
25084;BME280;13075;55.682;37.564;2023-04-10T12:23:13;100347.44;;;20.75;37.31
25084;BME280;13075;55.682;37.564;2023-04-10T12:25:38;100342.31;;;20.78;37.82
25084;BME280;13075;55.682;37.564;2023-04-10T12:28:05;100343.97;;;20.79;37.33
25084;BME280;13075;55.682;37.564;2023-04-10T12:30:31;100347.28;;;20.98;37.10
25084;BME280;13075;55.682;37.564;2023-04-10T12:32:56;100345.53;;;20.92;38.06
25084;BME280;13075;55.682;37.564;2023-04-10T12:35:37;100349.63;;;20.78;38.53
25084;BME280;13075;55.682;37.564;2023-04-10T12:38:03;100341.22;;;20.18;39.20
25084;BME280;13075;55.682;37.564;2023-04-10T12:40:28;100349.47;;;20.23;39.36
25084;BME280;13075;55.682;37.564;2023-04-10T12:42:54;100351.34;;;20.22;39.17
25084;BME280;13075;55.682;37.564;2023-04-10T12:45:19;100349.97;;;19.80;39.70
25084;BME280;13075;55.682;37.564;2023-04-10T12:47:48;100353.66;;;19.74;39.51
25084;BME280;13075;55.682;37.564;2023-04-10T12:50:16;100355.09;;;19.30;39.55
25084;BME280;13075;55.682;37.564;2023-04-10T12:52:43;100366.38;;;18.10;42.35
25084;BME280;13075;55.682;37.564;2023-04-10T12:57:35;100361.91;;;18.15;43.26
25084;BME280;13075;55.682;37.564;2023-04-10T13:00:01;100354.38;;;17.51;44.25
25084;BME280;13075;55.682;37.564;2023-04-10T13:02:27;100355.88;;;17.83;43.76
25084;BME280;13075;55.682;37.564;2023-04-10T13:04:53;100355.53;;;17.62;44.32
25084;BME280;13075;55.682;37.564;2023-04-10T13:07:19;100357.00;;;17.58;44.70
25084;BME280;13075;55.682;37.564;2023-04-10T13:09:44;100353.50;;;17.57;45.27
25084;BME280;13075;55.682;37.564;2023-04-10T13:12:11;100357.38;;;17.79;44.76
25084;BME280;13075;55.682;37.564;2023-04-10T13:14:37;100359.22;;;17.24;46.04
25084;BME280;13075;55.682;37.564;2023-04-10T13:17:02;100359.03;;;17.01;46.26
25084;BME280;13075;55.682;37.564;2023-04-10T13:19:27;100369.22;;;16.99;46.90
25084;BME280;13075;55.682;37.564;2023-04-10T13:21:53;100362.78;;;17.00;48.13
25084;BME280;13075;55.682;37.564;2023-04-10T13:24:18;100370.09;;;17.61;48.19
25084;BME280;13075;55.682;37.564;2023-04-10T13:26:44;100361.59;;;17.14;48.60
25084;BME280;13075;55.682;37.564;2023-04-10T13:29:09;100355.38;;;17.32;48.96
25084;BME280;13075;55.682;37.564;2023-04-10T13:31:35;100364.09;;;17.59;48.20